sensor_id;sensor_type;location;lat;lon;timestamp;temperature;humidity
8324;DHT22;4199;50.802;6.772;2023-12-20T00:01:06;7.90;61.10
8324;DHT22;4199;50.802;6.772;2023-12-20T00:03:33;7.90;61.00
8324;DHT22;4199;50.802;6.772;2023-12-20T00:06:09;7.90;60.80
8324;DHT22;4199;50.802;6.772;2023-12-20T00:08:36;8.00;60.30
8324;DHT22;4199;50.802;6.772;2023-12-20T00:11:03;8.00;60.30
8324;DHT22;4199;50.802;6.772;2023-12-20T00:13:41;7.90;60.30
8324;DHT22;4199;50.802;6.772;2023-12-20T00:16:09;8.00;60.30
8324;DHT22;4199;50.802;6.772;2023-12-20T00:18:36;8.00;60.40
8324;DHT22;4199;50.802;6.772;2023-12-20T00:21:03;8.00;60.70
8324;DHT22;4199;50.802;6.772;2023-12-20T00:23:30;8.00;60.70
8324;DHT22;4199;50.802;6.772;2023-12-20T00:25:56;8.00;61.00
8324;DHT22;4199;50.802;6.772;2023-12-20T00:28:23;7.90;61.90
8324;DHT22;4199;50.802;6.772;2023-12-20T00:30:50;7.90;61.00
8324;DHT22;4199;50.802;6.772;2023-12-20T00:33:17;8.00;61.10
8324;DHT22;4199;50.802;6.772;2023-12-20T00:35:44;8.00;61.20
8324;DHT22;4199;50.802;6.772;2023-12-20T00:38:10;7.90;61.30
8324;DHT22;4199;50.802;6.772;2023-12-20T00:40:37;8.00;61.20
8324;DHT22;4199;50.802;6.772;2023-12-20T00:43:04;8.00;61.40
8324;DHT22;4199;50.802;6.772;2023-12-20T00:45:31;7.90;61.70
8324;DHT22;4199;50.802;6.772;2023-12-20T00:47:57;8.00;61.90
8324;DHT22;4199;50.802;6.772;2023-12-20T00:50:25;8.00;61.50
8324;DHT22;4199;50.802;6.772;2023-12-20T00:52:56;7.90;61.40
8324;DHT22;4199;50.802;6.772;2023-12-20T00:55:22;8.00;61.40
8324;DHT22;4199;50.802;6.772;2023-12-20T00:57:49;8.00;61.40
8324;DHT22;4199;50.802;6.772;2023-12-20T01:00:16;7.90;60.80
8324;DHT22;4199;50.802;6.772;2023-12-20T01:02:43;8.00;60.70
8324;DHT22;4199;50.802;6.772;2023-12-20T01:05:10;8.00;60.00
8324;DHT22;4199;50.802;6.772;2023-12-20T01:07:36;8.00;59.50
8324;DHT22;4199;50.802;6.772;2023-12-20T01:10:03;8.00;59.30
8324;DHT22;4199;50.802;6.772;2023-12-20T01:12:30;8.00;59.00
8324;DHT22;4199;50.802;6.772;2023-12-20T01:14:57;8.00;58.70
8324;DHT22;4199;50.802;6.772;2023-12-20T01:17:25;8.00;58.90
8324;DHT22;4199;50.802;6.772;2023-12-20T01:20:10;8.00;58.50
8324;DHT22;4199;50.802;6.772;2023-12-20T01:22:37;7.90;58.60
8324;DHT22;4199;50.802;6.772;2023-12-20T01:25:04;7.90;59.10
8324;DHT22;4199;50.802;6.772;2023-12-20T01:27:31;7.80;59.00
8324;DHT22;4199;50.802;6.772;2023-12-20T01:29:57;7.80;59.50
8324;DHT22;4199;50.802;6.772;2023-12-20T01:32:24;7.80;59.70
8324;DHT22;4199;50.802;6.772;2023-12-20T01:34:51;7.80;59.80
8324;DHT22;4199;50.802;6.772;2023-12-20T01:37:18;7.70;59.90
8324;DHT22;4199;50.802;6.772;2023-12-20T01:39:45;7.70;59.70
8324;DHT22;4199;50.802;6.772;2023-12-20T01:42:12;7.70;58.80
8324;DHT22;4199;50.802;6.772;2023-12-20T01:44:38;7.70;57.80
8324;DHT22;4199;50.802;6.772;2023-12-20T01:47:05;7.70;57.50
8324;DHT22;4199;50.802;6.772;2023-12-20T01:49:32;7.70;57.10
8324;DHT22;4199;50.802;6.772;2023-12-20T01:51:59;7.70;55.70
8324;DHT22;4199;50.802;6.772;2023-12-20T01:54:26;7.70;53.80
8324;DHT22;4199;50.802;6.772;2023-12-20T01:56:53;7.70;52.40
8324;DHT22;4199;50.802;6.772;2023-12-20T01:59:20;7.60;52.50
8324;DHT22;4199;50.802;6.772;2023-12-20T02:01:47;7.40;51.70
8324;DHT22;4199;50.802;6.772;2023-12-20T02:04:14;7.20;52.80
8324;DHT22;4199;50.802;6.772;2023-12-20T02:06:42;7.10;52.80
8324;DHT22;4199;50.802;6.772;2023-12-20T02:09:10;7.00;52.90
8324;DHT22;4199;50.802;6.772;2023-12-20T02:11:38;6.90;53.80
8324;DHT22;4199;50.802;6.772;2023-12-20T02:14:04;6.80;53.40
8324;DHT22;4199;50.802;6.772;2023-12-20T02:16:31;6.70;53.30
8324;DHT22;4199;50.802;6.772;2023-12-20T02:18:58;6.70;53.50
8324;DHT22;4199;50.802;6.772;2023-12-20T02:21:40;6.60;53.40
8324;DHT22;4199;50.802;6.772;2023-12-20T02:24:06;6.60;52.70
8324;DHT22;4199;50.802;6.772;2023-12-20T02:26:34;6.60;52.90
8324;DHT22;4199;50.802;6.772;2023-12-20T02:29:01;6.60;52.50
8324;DHT22;4199;50.802;6.772;2023-12-20T02:31:27;6.60;52.70
8324;DHT22;4199;50.802;6.772;2023-12-20T02:33:54;6.60;52.90
8324;DHT22;4199;50.802;6.772;2023-12-20T02:36:21;6.60;52.30
8324;DHT22;4199;50.802;6.772;2023-12-20T02:38:48;6.60;52.40
8324;DHT22;4199;50.802;6.772;2023-12-20T02:41:15;6.50;52.80
8324;DHT22;4199;50.802;6.772;2023-12-20T02:43:44;6.50;52.60
8324;DHT22;4199;50.802;6.772;2023-12-20T02:46:13;6.60;52.70
8324;DHT22;4199;50.802;6.772;2023-12-20T02:48:40;6.60;52.40
8324;DHT22;4199;50.802;6.772;2023-12-20T02:51:07;6.60;52.00
8324;DHT22;4199;50.802;6.772;2023-12-20T02:53:33;6.70;51.50
8324;DHT22;4199;50.802;6.772;2023-12-20T02:56:00;6.70;51.20
8324;DHT22;4199;50.802;6.772;2023-12-20T02:58:26;6.70;52.00
8324;DHT22;4199;50.802;6.772;2023-12-20T03:00:53;6.70;52.10
8324;DHT22;4199;50.802;6.772;2023-12-20T03:03:20;6.70;51.80
8324;DHT22;4199;50.802;6.772;2023-12-20T03:05:47;6.70;52.40
8324;DHT22;4199;50.802;6.772;2023-12-20T03:08:14;6.70;52.10
8324;DHT22;4199;50.802;6.772;2023-12-20T03:10:41;6.70;52.10
8324;DHT22;4199;50.802;6.772;2023-12-20T03:13:08;6.70;52.70
8324;DHT22;4199;50.802;6.772;2023-12-20T03:15:34;6.70;53.70
8324;DHT22;4199;50.802;6.772;2023-12-20T03:18:01;6.70;52.60
8324;DHT22;4199;50.802;6.772;2023-12-20T03:20:46;6.70;52.80
8324;DHT22;4199;50.802;6.772;2023-12-20T03:23:14;6.70;53.20
8324;DHT22;4199;50.802;6.772;2023-12-20T03:25:41;6.70;53.30
8324;DHT22;4199;50.802;6.772;2023-12-20T03:28:08;6.80;53.10
8324;DHT22;4199;50.802;6.772;2023-12-20T03:30:34;6.80;52.10
8324;DHT22;4199;50.802;6.772;2023-12-20T03:33:01;6.80;52.00
8324;DHT22;4199;50.802;6.772;2023-12-20T03:35:28;6.80;52.30
8324;DHT22;4199;50.802;6.772;2023-12-20T03:37:55;6.80;51.50
8324;DHT22;4199;50.802;6.772;2023-12-20T03:40:23;6.90;50.70
8324;DHT22;4199;50.802;6.772;2023-12-20T03:42:50;6.90;50.00
8324;DHT22;4199;50.802;6.772;2023-12-20T03:45:17;6.90;50.20
8324;DHT22;4199;50.802;6.772;2023-12-20T03:48:02;6.80;50.20
8324;DHT22;4199;50.802;6.772;2023-12-20T03:50:29;6.90;50.70
8324;DHT22;4199;50.802;6.772;2023-12-20T03:52:56;6.80;50.80
8324;DHT22;4199;50.802;6.772;2023-12-20T03:55:23;6.80;50.10
8324;DHT22;4199;50.802;6.772;2023-12-20T03:57:50;6.80;50.60
8324;DHT22;4199;50.802;6.772;2023-12-20T04:00:17;6.80;50.70
8324;DHT22;4199;50.802;6.772;2023-12-20T04:02:44;6.80;50.70
8324;DHT22;4199;50.802;6.772;2023-12-20T04:05:10;6.80;50.80
8324;DHT22;4199;50.802;6.772;2023-12-20T04:07:38;6.80;50.30
8324;DHT22;4199;50.802;6.772;2023-12-20T04:10:05;6.80;50.20
8324;DHT22;4199;50.802;6.772;2023-12-20T04:12:32;6.80;50.40
8324;DHT22;4199;50.802;6.772;2023-12-20T04:14:59;6.80;50.50
8324;DHT22;4199;50.802;6.772;2023-12-20T04:17:26;6.70;50.70
8324;DHT22;4199;50.802;6.772;2023-12-20T04:19:53;6.70;50.80
8324;DHT22;4199;50.802;6.772;2023-12-20T04:22:38;6.80;50.60
8324;DHT22;4199;50.802;6.772;2023-12-20T04:25:05;6.80;50.20
8324;DHT22;4199;50.802;6.772;2023-12-20T04:27:32;6.80;50.40
8324;DHT22;4199;50.802;6.772;2023-12-20T04:29:58;6.70;50.60
8324;DHT22;4199;50.802;6.772;2023-12-20T04:32:25;6.70;50.90
8324;DHT22;4199;50.802;6.772;2023-12-20T04:34:52;6.70;50.60
8324;DHT22;4199;50.802;6.772;2023-12-20T04:37:19;6.70;50.50
8324;DHT22;4199;50.802;6.772;2023-12-20T04:39:45;6.70;50.10
8324;DHT22;4199;50.802;6.772;2023-12-20T04:42:12;6.70;50.00
8324;DHT22;4199;50.802;6.772;2023-12-20T04:44:39;6.80;50.00
8324;DHT22;4199;50.802;6.772;2023-12-20T04:47:06;6.70;50.20
8324;DHT22;4199;50.802;6.772;2023-12-20T04:49:32;6.70;49.60
8324;DHT22;4199;50.802;6.772;2023-12-20T04:52:18;6.70;49.10
8324;DHT22;4199;50.802;6.772;2023-12-20T04:54:45;6.60;49.40
8324;DHT22;4199;50.802;6.772;2023-12-20T04:57:31;6.60;50.60
8324;DHT22;4199;50.802;6.772;2023-12-20T04:59:57;6.60;50.70
8324;DHT22;4199;50.802;6.772;2023-12-20T05:02:24;6.60;51.00
8324;DHT22;4199;50.802;6.772;2023-12-20T05:04:51;6.60;51.20
8324;DHT22;4199;50.802;6.772;2023-12-20T05:07:21;6.60;51.50
8324;DHT22;4199;50.802;6.772;2023-12-20T05:09:48;6.60;51.10
8324;DHT22;4199;50.802;6.772;2023-12-20T05:12:15;6.50;51.10
8324;DHT22;4199;50.802;6.772;2023-12-20T05:14:41;6.50;50.60
8324;DHT22;4199;50.802;6.772;2023-12-20T05:17:08;6.50;50.80
8324;DHT22;4199;50.802;6.772;2023-12-20T05:19:41;6.40;50.70
8324;DHT22;4199;50.802;6.772;2023-12-20T05:22:26;6.40;50.80
8324;DHT22;4199;50.802;6.772;2023-12-20T05:24:54;6.40;50.70
8324;DHT22;4199;50.802;6.772;2023-12-20T05:27:20;6.40;50.20
8324;DHT22;4199;50.802;6.772;2023-12-20T05:30:06;6.30;50.50
8324;DHT22;4199;50.802;6.772;2023-12-20T05:32:33;6.30;50.70
8324;DHT22;4199;50.802;6.772;2023-12-20T05:35:00;6.40;50.20
8324;DHT22;4199;50.802;6.772;2023-12-20T05:37:27;6.40;50.60
8324;DHT22;4199;50.802;6.772;2023-12-20T05:39:54;6.30;50.50
8324;DHT22;4199;50.802;6.772;2023-12-20T05:42:20;6.40;50.80
8324;DHT22;4199;50.802;6.772;2023-12-20T05:44:47;6.40;50.50
8324;DHT22;4199;50.802;6.772;2023-12-20T05:47:17;6.40;51.00
8324;DHT22;4199;50.802;6.772;2023-12-20T05:49:45;6.40;51.20
8324;DHT22;4199;50.802;6.772;2023-12-20T05:52:12;6.30;51.20
8324;DHT22;4199;50.802;6.772;2023-12-20T05:54:38;6.30;51.30
8324;DHT22;4199;50.802;6.772;2023-12-20T05:57:05;6.30;51.00
8324;DHT22;4199;50.802;6.772;2023-12-20T05:59:32;6.40;51.00
8324;DHT22;4199;50.802;6.772;2023-12-20T06:01:59;6.40;50.80
8324;DHT22;4199;50.802;6.772;2023-12-20T06:04:29;6.50;50.60
8324;DHT22;4199;50.802;6.772;2023-12-20T06:07:14;6.50;50.40
8324;DHT22;4199;50.802;6.772;2023-12-20T06:09:41;6.50;50.40
8324;DHT22;4199;50.802;6.772;2023-12-20T06:12:27;6.50;50.20
8324;DHT22;4199;50.802;6.772;2023-12-20T06:14:55;6.60;50.00
8324;DHT22;4199;50.802;6.772;2023-12-20T06:17:22;6.60;49.80
8324;DHT22;4199;50.802;6.772;2023-12-20T06:19:54;6.70;49.90
8324;DHT22;4199;50.802;6.772;2023-12-20T06:22:40;6.60;50.00
8324;DHT22;4199;50.802;6.772;2023-12-20T06:25:07;6.70;49.70
8324;DHT22;4199;50.802;6.772;2023-12-20T06:27:33;6.70;49.20
8324;DHT22;4199;50.802;6.772;2023-12-20T06:30:00;6.80;48.70
8324;DHT22;4199;50.802;6.772;2023-12-20T06:32:27;6.80;48.80
8324;DHT22;4199;50.802;6.772;2023-12-20T06:34:55;6.70;48.90
8324;DHT22;4199;50.802;6.772;2023-12-20T06:37:22;6.80;48.40
8324;DHT22;4199;50.802;6.772;2023-12-20T06:39:49;6.80;48.10
8324;DHT22;4199;50.802;6.772;2023-12-20T06:42:16;6.70;48.60
8324;DHT22;4199;50.802;6.772;2023-12-20T06:44:42;6.80;48.40
8324;DHT22;4199;50.802;6.772;2023-12-20T06:47:15;6.70;47.90
8324;DHT22;4199;50.802;6.772;2023-12-20T06:49:42;6.80;48.00
8324;DHT22;4199;50.802;6.772;2023-12-20T06:52:08;6.70;48.40
8324;DHT22;4199;50.802;6.772;2023-12-20T06:54:35;6.80;48.10
8324;DHT22;4199;50.802;6.772;2023-12-20T06:57:02;6.80;48.20
8324;DHT22;4199;50.802;6.772;2023-12-20T06:59:48;6.80;47.20
8324;DHT22;4199;50.802;6.772;2023-12-20T07:02:15;6.80;46.80
8324;DHT22;4199;50.802;6.772;2023-12-20T07:04:42;6.80;47.50
8324;DHT22;4199;50.802;6.772;2023-12-20T07:07:09;6.80;46.20
8324;DHT22;4199;50.802;6.772;2023-12-20T07:09:36;6.80;46.50
8324;DHT22;4199;50.802;6.772;2023-12-20T07:12:02;6.80;46.80
8324;DHT22;4199;50.802;6.772;2023-12-20T07:14:29;6.80;46.60
8324;DHT22;4199;50.802;6.772;2023-12-20T07:16:56;6.80;46.60
8324;DHT22;4199;50.802;6.772;2023-12-20T07:19:23;6.80;46.20
8324;DHT22;4199;50.802;6.772;2023-12-20T07:21:50;6.80;46.30
8324;DHT22;4199;50.802;6.772;2023-12-20T07:24:17;6.80;46.00
8324;DHT22;4199;50.802;6.772;2023-12-20T07:27:03;6.80;47.00
8324;DHT22;4199;50.802;6.772;2023-12-20T07:29:29;6.80;45.80
8324;DHT22;4199;50.802;6.772;2023-12-20T07:31:56;6.80;46.10
8324;DHT22;4199;50.802;6.772;2023-12-20T07:34:23;6.80;45.90
8324;DHT22;4199;50.802;6.772;2023-12-20T07:36:50;6.80;45.40
8324;DHT22;4199;50.802;6.772;2023-12-20T07:39:16;6.80;45.20
8324;DHT22;4199;50.802;6.772;2023-12-20T07:41:43;6.90;45.10
8324;DHT22;4199;50.802;6.772;2023-12-20T07:44:12;6.90;45.20
8324;DHT22;4199;50.802;6.772;2023-12-20T07:46:39;6.90;44.00
8324;DHT22;4199;50.802;6.772;2023-12-20T07:49:05;7.00;44.40
8324;DHT22;4199;50.802;6.772;2023-12-20T07:51:32;7.00;44.10
8324;DHT22;4199;50.802;6.772;2023-12-20T07:54:11;6.90;44.30
8324;DHT22;4199;50.802;6.772;2023-12-20T07:56:38;6.90;44.40
8324;DHT22;4199;50.802;6.772;2023-12-20T07:59:24;6.90;44.60
8324;DHT22;4199;50.802;6.772;2023-12-20T08:01:58;7.00;43.60
8324;DHT22;4199;50.802;6.772;2023-12-20T08:04:26;7.00;43.80
8324;DHT22;4199;50.802;6.772;2023-12-20T08:07:08;7.00;43.50
8324;DHT22;4199;50.802;6.772;2023-12-20T08:09:37;7.00;43.40
8324;DHT22;4199;50.802;6.772;2023-12-20T08:12:04;7.00;43.20
8324;DHT22;4199;50.802;6.772;2023-12-20T08:14:31;7.00;44.00
8324;DHT22;4199;50.802;6.772;2023-12-20T08:16:58;7.00;43.10
8324;DHT22;4199;50.802;6.772;2023-12-20T08:19:25;7.00;43.50
8324;DHT22;4199;50.802;6.772;2023-12-20T08:21:51;7.00;43.30
8324;DHT22;4199;50.802;6.772;2023-12-20T08:24:18;7.00;42.60
8324;DHT22;4199;50.802;6.772;2023-12-20T08:26:45;7.00;43.10
8324;DHT22;4199;50.802;6.772;2023-12-20T08:29:13;6.90;43.10
8324;DHT22;4199;50.802;6.772;2023-12-20T08:31:40;6.80;43.50
8324;DHT22;4199;50.802;6.772;2023-12-20T08:34:07;6.80;43.50
8324;DHT22;4199;50.802;6.772;2023-12-20T08:36:35;6.80;44.60
8324;DHT22;4199;50.802;6.772;2023-12-20T08:39:01;6.80;43.70
8324;DHT22;4199;50.802;6.772;2023-12-20T08:41:30;6.70;43.80
8324;DHT22;4199;50.802;6.772;2023-12-20T08:43:56;6.70;43.60
8324;DHT22;4199;50.802;6.772;2023-12-20T08:46:23;6.80;42.70
8324;DHT22;4199;50.802;6.772;2023-12-20T08:48:50;6.90;42.70
8324;DHT22;4199;50.802;6.772;2023-12-20T08:51:17;7.00;41.50
8324;DHT22;4199;50.802;6.772;2023-12-20T08:53:44;7.20;41.90
8324;DHT22;4199;50.802;6.772;2023-12-20T08:56:12;7.20;42.00
8324;DHT22;4199;50.802;6.772;2023-12-20T08:58:38;7.40;40.40
8324;DHT22;4199;50.802;6.772;2023-12-20T09:01:05;7.50;39.90
8324;DHT22;4199;50.802;6.772;2023-12-20T09:03:32;7.60;38.30
8324;DHT22;4199;50.802;6.772;2023-12-20T09:05:59;7.70;39.40
8324;DHT22;4199;50.802;6.772;2023-12-20T09:08:26;7.70;39.50
8324;DHT22;4199;50.802;6.772;2023-12-20T09:10:52;7.80;39.10
8324;DHT22;4199;50.802;6.772;2023-12-20T09:13:19;7.70;39.10
8324;DHT22;4199;50.802;6.772;2023-12-20T09:15:47;7.80;39.60
8324;DHT22;4199;50.802;6.772;2023-12-20T09:18:14;7.80;38.80
8324;DHT22;4199;50.802;6.772;2023-12-20T09:20:40;7.70;38.40
8324;DHT22;4199;50.802;6.772;2023-12-20T09:23:28;7.70;39.40
8324;DHT22;4199;50.802;6.772;2023-12-20T09:25:55;7.60;39.10
8324;DHT22;4199;50.802;6.772;2023-12-20T09:28:28;7.70;39.00
8324;DHT22;4199;50.802;6.772;2023-12-20T09:30:55;7.70;38.70
8324;DHT22;4199;50.802;6.772;2023-12-20T09:33:22;7.70;38.80
8324;DHT22;4199;50.802;6.772;2023-12-20T09:35:48;7.70;39.50
8324;DHT22;4199;50.802;6.772;2023-12-20T09:38:15;7.60;39.80
8324;DHT22;4199;50.802;6.772;2023-12-20T09:40:44;7.50;40.00
8324;DHT22;4199;50.802;6.772;2023-12-20T09:43:14;7.60;40.30
8324;DHT22;4199;50.802;6.772;2023-12-20T09:45:46;7.50;40.00
8324;DHT22;4199;50.802;6.772;2023-12-20T09:48:13;7.50;40.30
8324;DHT22;4199;50.802;6.772;2023-12-20T09:51:01;7.60;40.40
8324;DHT22;4199;50.802;6.772;2023-12-20T09:53:47;7.80;39.80
8324;DHT22;4199;50.802;6.772;2023-12-20T09:56:15;7.70;39.30
8324;DHT22;4199;50.802;6.772;2023-12-20T09:58:42;7.70;40.20
8324;DHT22;4199;50.802;6.772;2023-12-20T10:01:08;7.60;40.20
8324;DHT22;4199;50.802;6.772;2023-12-20T10:03:38;7.70;39.80
8324;DHT22;4199;50.802;6.772;2023-12-20T10:06:07;7.80;39.30
8324;DHT22;4199;50.802;6.772;2023-12-20T10:08:34;7.80;39.00
8324;DHT22;4199;50.802;6.772;2023-12-20T10:11:00;7.80;38.90
8324;DHT22;4199;50.802;6.772;2023-12-20T10:13:29;7.90;38.30
8324;DHT22;4199;50.802;6.772;2023-12-20T10:15:56;8.00;38.20
8324;DHT22;4199;50.802;6.772;2023-12-20T10:18:24;8.00;37.60
8324;DHT22;4199;50.802;6.772;2023-12-20T10:21:22;8.00;37.90
8324;DHT22;4199;50.802;6.772;2023-12-20T10:23:49;7.90;38.80
8324;DHT22;4199;50.802;6.772;2023-12-20T10:26:20;8.00;38.70
8324;DHT22;4199;50.802;6.772;2023-12-20T10:29:00;8.00;37.90
8324;DHT22;4199;50.802;6.772;2023-12-20T10:31:31;8.00;38.40
8324;DHT22;4199;50.802;6.772;2023-12-20T10:34:00;8.00;38.00
8324;DHT22;4199;50.802;6.772;2023-12-20T10:36:31;8.00;38.90
8324;DHT22;4199;50.802;6.772;2023-12-20T10:38:59;8.00;38.70
8324;DHT22;4199;50.802;6.772;2023-12-20T10:41:27;8.00;38.80
8324;DHT22;4199;50.802;6.772;2023-12-20T10:44:02;8.00;38.30
8324;DHT22;4199;50.802;6.772;2023-12-20T10:46:30;8.10;38.00
8324;DHT22;4199;50.802;6.772;2023-12-20T10:48:57;8.10;37.60
8324;DHT22;4199;50.802;6.772;2023-12-20T10:51:25;8.00;38.60
8324;DHT22;4199;50.802;6.772;2023-12-20T10:53:56;8.00;38.00
8324;DHT22;4199;50.802;6.772;2023-12-20T10:56:23;8.10;37.90
8324;DHT22;4199;50.802;6.772;2023-12-20T10:58:50;8.20;38.20
8324;DHT22;4199;50.802;6.772;2023-12-20T11:01:29;8.30;37.80
8324;DHT22;4199;50.802;6.772;2023-12-20T11:03:56;8.20;37.50
8324;DHT22;4199;50.802;6.772;2023-12-20T11:06:51;8.30;37.30
8324;DHT22;4199;50.802;6.772;2023-12-20T11:09:29;8.30;37.70
8324;DHT22;4199;50.802;6.772;2023-12-20T11:14:46;8.40;36.50
8324;DHT22;4199;50.802;6.772;2023-12-20T11:17:32;8.40;37.30
8324;DHT22;4199;50.802;6.772;2023-12-20T11:22:30;8.30;37.10
8324;DHT22;4199;50.802;6.772;2023-12-20T11:27:33;8.10;37.70
8324;DHT22;4199;50.802;6.772;2023-12-20T11:30:03;8.20;37.80
8324;DHT22;4199;50.802;6.772;2023-12-20T11:32:36;8.00;38.50
8324;DHT22;4199;50.802;6.772;2023-12-20T11:37:38;8.00;38.00
8324;DHT22;4199;50.802;6.772;2023-12-20T11:40:07;8.00;38.30
8324;DHT22;4199;50.802;6.772;2023-12-20T11:42:38;7.90;38.50
8324;DHT22;4199;50.802;6.772;2023-12-20T11:45:10;8.00;38.20
8324;DHT22;4199;50.802;6.772;2023-12-20T11:47:37;8.20;38.00
8324;DHT22;4199;50.802;6.772;2023-12-20T11:50:05;8.30;37.30
8324;DHT22;4199;50.802;6.772;2023-12-20T11:52:32;8.30;37.20
8324;DHT22;4199;50.802;6.772;2023-12-20T11:54:58;8.40;37.40
8324;DHT22;4199;50.802;6.772;2023-12-20T11:57:25;8.50;37.20
8324;DHT22;4199;50.802;6.772;2023-12-20T12:00:13;8.60;36.10
8324;DHT22;4199;50.802;6.772;2023-12-20T12:02:40;8.70;35.70
8324;DHT22;4199;50.802;6.772;2023-12-20T12:05:08;8.70;35.50
8324;DHT22;4199;50.802;6.772;2023-12-20T12:07:35;8.60;36.70
8324;DHT22;4199;50.802;6.772;2023-12-20T12:10:02;8.50;36.00
8324;DHT22;4199;50.802;6.772;2023-12-20T12:12:30;8.50;37.20
8324;DHT22;4199;50.802;6.772;2023-12-20T12:14:57;8.50;36.30
8324;DHT22;4199;50.802;6.772;2023-12-20T12:17:24;8.50;37.00
8324;DHT22;4199;50.802;6.772;2023-12-20T12:20:02;8.50;36.00
8324;DHT22;4199;50.802;6.772;2023-12-20T12:22:31;8.40;37.30
8324;DHT22;4199;50.802;6.772;2023-12-20T12:24:59;8.30;37.70
8324;DHT22;4199;50.802;6.772;2023-12-20T12:27:27;8.30;37.40
8324;DHT22;4199;50.802;6.772;2023-12-20T12:30:04;8.30;37.40
8324;DHT22;4199;50.802;6.772;2023-12-20T12:32:40;8.30;37.40
8324;DHT22;4199;50.802;6.772;2023-12-20T12:35:08;8.30;38.30
8324;DHT22;4199;50.802;6.772;2023-12-20T12:37:38;8.20;38.40
8324;DHT22;4199;50.802;6.772;2023-12-20T12:40:09;8.20;38.00
8324;DHT22;4199;50.802;6.772;2023-12-20T12:42:37;8.20;39.40
8324;DHT22;4199;50.802;6.772;2023-12-20T12:45:05;8.20;38.60
8324;DHT22;4199;50.802;6.772;2023-12-20T12:47:32;8.20;38.10
8324;DHT22;4199;50.802;6.772;2023-12-20T12:49:59;8.10;38.50
8324;DHT22;4199;50.802;6.772;2023-12-20T12:52:45;8.00;38.80
8324;DHT22;4199;50.802;6.772;2023-12-20T12:55:12;8.10;39.10
8324;DHT22;4199;50.802;6.772;2023-12-20T12:57:39;8.10;39.10
8324;DHT22;4199;50.802;6.772;2023-12-20T13:00:06;8.20;39.10
8324;DHT22;4199;50.802;6.772;2023-12-20T13:02:35;8.10;38.70
8324;DHT22;4199;50.802;6.772;2023-12-20T13:05:05;8.20;38.90
8324;DHT22;4199;50.802;6.772;2023-12-20T13:07:32;8.20;38.70
8324;DHT22;4199;50.802;6.772;2023-12-20T13:09:59;8.30;39.10
8324;DHT22;4199;50.802;6.772;2023-12-20T13:12:26;8.20;39.00
8324;DHT22;4199;50.802;6.772;2023-12-20T13:14:53;8.20;39.90
8324;DHT22;4199;50.802;6.772;2023-12-20T13:17:20;8.20;40.20
8324;DHT22;4199;50.802;6.772;2023-12-20T13:19:47;8.10;40.20
8324;DHT22;4199;50.802;6.772;2023-12-20T13:22:15;8.10;42.00
8324;DHT22;4199;50.802;6.772;2023-12-20T13:24:51;8.00;43.30
8324;DHT22;4199;50.802;6.772;2023-12-20T13:27:18;7.90;44.20
8324;DHT22;4199;50.802;6.772;2023-12-20T13:29:45;7.90;45.20
8324;DHT22;4199;50.802;6.772;2023-12-20T13:32:12;7.90;44.90
8324;DHT22;4199;50.802;6.772;2023-12-20T13:34:39;7.80;44.90
8324;DHT22;4199;50.802;6.772;2023-12-20T13:37:05;7.80;45.40
8324;DHT22;4199;50.802;6.772;2023-12-20T13:39:32;7.90;46.00
8324;DHT22;4199;50.802;6.772;2023-12-20T13:42:00;8.00;45.40
8324;DHT22;4199;50.802;6.772;2023-12-20T13:44:27;8.10;45.80
8324;DHT22;4199;50.802;6.772;2023-12-20T13:46:54;8.10;44.20
8324;DHT22;4199;50.802;6.772;2023-12-20T13:51:55;8.30;42.80
8324;DHT22;4199;50.802;6.772;2023-12-20T13:54:22;8.30;44.00
8324;DHT22;4199;50.802;6.772;2023-12-20T13:56:49;8.30;43.50
8324;DHT22;4199;50.802;6.772;2023-12-20T13:59:34;8.30;43.10
8324;DHT22;4199;50.802;6.772;2023-12-20T14:02:01;8.20;43.50
8324;DHT22;4199;50.802;6.772;2023-12-20T14:04:30;8.20;43.00
8324;DHT22;4199;50.802;6.772;2023-12-20T14:07:09;8.10;43.30
8324;DHT22;4199;50.802;6.772;2023-12-20T14:09:38;8.10;42.80
8324;DHT22;4199;50.802;6.772;2023-12-20T14:12:05;8.30;43.10
8324;DHT22;4199;50.802;6.772;2023-12-20T14:14:47;8.20;42.90
8324;DHT22;4199;50.802;6.772;2023-12-20T14:17:14;8.20;42.70
8324;DHT22;4199;50.802;6.772;2023-12-20T14:19:40;8.20;42.60
8324;DHT22;4199;50.802;6.772;2023-12-20T14:22:07;8.20;44.00
8324;DHT22;4199;50.802;6.772;2023-12-20T14:24:35;8.20;42.20
8324;DHT22;4199;50.802;6.772;2023-12-20T14:27:02;8.20;42.40
8324;DHT22;4199;50.802;6.772;2023-12-20T14:29:29;8.30;43.80
8324;DHT22;4199;50.802;6.772;2023-12-20T14:31:56;8.20;42.80
8324;DHT22;4199;50.802;6.772;2023-12-20T14:34:41;8.30;42.20
8324;DHT22;4199;50.802;6.772;2023-12-20T14:37:08;8.40;42.20
8324;DHT22;4199;50.802;6.772;2023-12-20T14:42:06;8.50;41.50
8324;DHT22;4199;50.802;6.772;2023-12-20T14:47:00;8.60;40.50
8324;DHT22;4199;50.802;6.772;2023-12-20T14:54:26;8.50;41.00
8324;DHT22;4199;50.802;6.772;2023-12-20T14:56:53;8.40;42.50
8324;DHT22;4199;50.802;6.772;2023-12-20T14:59:19;8.30;42.80
8324;DHT22;4199;50.802;6.772;2023-12-20T15:01:46;8.20;42.90
8324;DHT22;4199;50.802;6.772;2023-12-20T15:04:13;8.20;43.40
8324;DHT22;4199;50.802;6.772;2023-12-20T15:06:40;8.20;43.60
8324;DHT22;4199;50.802;6.772;2023-12-20T15:09:25;8.10;44.00
8324;DHT22;4199;50.802;6.772;2023-12-20T15:11:53;8.10;43.80
8324;DHT22;4199;50.802;6.772;2023-12-20T15:14:20;8.10;44.20
8324;DHT22;4199;50.802;6.772;2023-12-20T15:16:47;8.10;44.00
8324;DHT22;4199;50.802;6.772;2023-12-20T15:19:14;8.00;44.20
8324;DHT22;4199;50.802;6.772;2023-12-20T15:21:41;8.00;44.30
8324;DHT22;4199;50.802;6.772;2023-12-20T15:24:14;7.90;44.70
8324;DHT22;4199;50.802;6.772;2023-12-20T15:26:42;8.00;44.80
8324;DHT22;4199;50.802;6.772;2023-12-20T15:29:10;8.00;44.50
8324;DHT22;4199;50.802;6.772;2023-12-20T15:31:45;8.00;44.70
8324;DHT22;4199;50.802;6.772;2023-12-20T15:34:13;8.00;44.80
8324;DHT22;4199;50.802;6.772;2023-12-20T15:36:42;8.00;44.60
8324;DHT22;4199;50.802;6.772;2023-12-20T15:39:09;8.00;44.20
8324;DHT22;4199;50.802;6.772;2023-12-20T15:41:35;8.00;44.50
8324;DHT22;4199;50.802;6.772;2023-12-20T15:44:02;8.00;44.40
8324;DHT22;4199;50.802;6.772;2023-12-20T15:46:29;8.00;44.80
8324;DHT22;4199;50.802;6.772;2023-12-20T15:48:56;8.00;44.50
8324;DHT22;4199;50.802;6.772;2023-12-20T15:51:23;8.00;44.60
8324;DHT22;4199;50.802;6.772;2023-12-20T15:53:51;8.00;45.90
8324;DHT22;4199;50.802;6.772;2023-12-20T15:56:18;8.00;45.40
8324;DHT22;4199;50.802;6.772;2023-12-20T15:58:45;8.00;45.50
8324;DHT22;4199;50.802;6.772;2023-12-20T16:01:14;8.00;46.20
8324;DHT22;4199;50.802;6.772;2023-12-20T16:03:42;7.90;46.50
8324;DHT22;4199;50.802;6.772;2023-12-20T16:06:19;7.90;46.90
8324;DHT22;4199;50.802;6.772;2023-12-20T16:08:48;7.90;46.90
8324;DHT22;4199;50.802;6.772;2023-12-20T16:11:33;8.00;47.00
8324;DHT22;4199;50.802;6.772;2023-12-20T16:13:59;7.90;47.00
8324;DHT22;4199;50.802;6.772;2023-12-20T16:16:26;8.00;47.30
8324;DHT22;4199;50.802;6.772;2023-12-20T16:18:53;7.90;47.70
8324;DHT22;4199;50.802;6.772;2023-12-20T16:21:20;7.90;47.80
8324;DHT22;4199;50.802;6.772;2023-12-20T16:23:46;7.90;47.70
8324;DHT22;4199;50.802;6.772;2023-12-20T16:26:13;7.90;47.90
8324;DHT22;4199;50.802;6.772;2023-12-20T16:28:40;7.90;47.80
8324;DHT22;4199;50.802;6.772;2023-12-20T16:31:07;7.90;48.00
8324;DHT22;4199;50.802;6.772;2023-12-20T16:33:33;7.90;47.60
8324;DHT22;4199;50.802;6.772;2023-12-20T16:36:00;7.90;47.30
8324;DHT22;4199;50.802;6.772;2023-12-20T16:38:27;8.00;47.00
8324;DHT22;4199;50.802;6.772;2023-12-20T16:40:54;8.00;46.50
8324;DHT22;4199;50.802;6.772;2023-12-20T16:43:21;8.00;46.10
8324;DHT22;4199;50.802;6.772;2023-12-20T16:45:58;8.10;46.30
8324;DHT22;4199;50.802;6.772;2023-12-20T16:48:25;8.00;46.10
8324;DHT22;4199;50.802;6.772;2023-12-20T16:50:51;8.00;46.00